SLRY 
Reyes Airport
Reyes, Bolivia 
ICAOIATAStatus
SLRYREYOperational
LatitudeLongitude
14° 18' 15" S67° 21' 12" W
-14.304400-67.353401
Local Time (DST-4)UTC (GMT-4)
04-21-2014 12:32 am04-21-2014 04:32
Sunrise-SunsetLocalUTC
Begin Civil Twilight06:14 am10:14
Sunrise06:35 am10:35
Sunset06:19 pm22:19
End Civil Twilight06:41 pm22:41

Current Weather

METARObservedFlight Conditions

SLRY 202200Z 16006KT 9999 FEW012 BKN020 OVC080 24/23 Q1012

Sun, Apr 20, 2014 @ 22:00 UTC(Z)

(6 Hours, 32 Minutes ago)

MVFR

(Marginal Visual Flight Rules)

WindVisibilityCloudsConditions
160° at 6 knots (11 kph)
10 km or more
  • Few at 1,200' AGL
  • Broken at 2,000' AGL
  • Overcast at 8,000' AGL
  • No significant weather
TemperaturesReadingsPrecipitation
Current Temp24°C (75°F)
Dewpoint23°C (73°F)
Humidity94%
Altimeter29.88"Hg
Sea Level Pressure1012mb
Field Elevation918.64'
None Recorded

Additional weather within a 92.6km radius of SLRY

Location METAR
SLRQ

20.7km S (229°)

6 hours, 32 minutes ago
VFR VFR    MVFR MVFR    IFR IFR    LIFR LIFR    Unknown Unknown

Previous 24 hour Weather Graphs

  Loading...

CheckWX.com is intended as a tool to help pilots better visualize weather data.   It is not intended as a substitute for an official weather briefing obtained from a Flight Service Station.
CheckWX.com does not meet the FAA requirements for an official pre-flight weather briefing.   Therefore, it's important that pilots still call and obtain an official FSS pre-flight weather briefing.